Time,TemperatureF,DewpointF,PressureIn,WindDirection,WindDirectionDegrees,WindSpeedMPH,WindSpeedGustMPH,Humidity,HourlyPrecipIn,Conditions,Clouds,dailyrainin,SolarRadiationWatts/m^2,SoftwareType,DateUTC
2013-03-03 01:00:00,35.0,28.0,30.08,SE,140,4.0,5.0,76,-99.99,,,-99.99,0.000000,,2013-03-03 08:00:00,
2013-03-03 01:54:00,35.0,28.0,30.08,SE,140,4.0,5.0,76,-99.99,,,-99.99,0.000000,,2013-03-03 08:54:00,
2013-03-03 02:00:00,30.0,26.0,30.07,SSE,147,4.0,-999.0,84,-99.99,,,-99.99,0.000000,,2013-03-03 09:00:00,
2013-03-03 02:52:00,30.0,26.0,30.07,SSE,147,4.0,-999.0,84,-99.99,,,-99.99,0.000000,,2013-03-03 09:52:00,
2013-03-03 03:00:00,34.0,28.0,30.03,SE,138,3.0,5.0,76,-99.99,,,-99.99,0.000000,,2013-03-03 10:00:00,
2013-03-03 03:52:00,34.0,28.0,30.03,SE,138,3.0,5.0,76,-99.99,,,-99.99,0.000000,,2013-03-03 10:52:00,
2013-03-03 04:00:00,36.0,28.0,30.01,SSE,153,4.0,5.0,75,-99.99,,,-99.99,0.000000,,2013-03-03 11:00:00,
2013-03-03 04:52:00,36.0,28.0,30.01,SSE,153,4.0,5.0,75,-99.99,,,-99.99,0.000000,,2013-03-03 11:52:00,
2013-03-03 05:00:00,37.0,28.0,30.00,SE,138,4.0,5.0,69,-99.99,,,-99.99,0.000000,,2013-03-03 12:00:00,
2013-03-03 05:53:00,37.0,28.0,30.00,SE,138,4.0,5.0,69,-99.99,,,-99.99,0.000000,,2013-03-03 12:53:00,
2013-03-03 06:00:00,36.0,28.0,29.99,SSE,151,4.0,5.0,72,-99.99,,,-99.99,0.000000,,2013-03-03 13:00:00,
2013-03-03 06:52:00,36.0,28.0,29.99,SSE,151,4.0,5.0,72,-99.99,,,-99.99,0.000000,,2013-03-03 13:52:00,
2013-03-03 07:00:00,34.0,28.0,30.00,SSE,161,3.0,-999.0,77,-99.99,,,-99.99,0.230000,,2013-03-03 14:00:00,
2013-03-03 07:52:00,34.0,28.0,30.00,SSE,161,3.0,-999.0,77,-99.99,,,-99.99,0.230000,,2013-03-03 14:52:00,
2013-03-03 08:00:00,35.0,29.0,30.01,East,86,3.0,5.0,77,-99.99,,,-99.99,23.930000,,2013-03-03 15:00:00,
2013-03-03 08:52:00,35.0,29.0,30.01,East,86,3.0,5.0,77,-99.99,,,-99.99,23.930000,,2013-03-03 15:52:00,
2013-03-03 09:00:00,37.0,30.0,29.99,ENE,77,2.0,6.0,75,-99.99,,,-99.99,89.599998,,2013-03-03 16:00:00,
2013-03-03 09:52:00,37.0,30.0,29.99,ENE,77,2.0,6.0,75,-99.99,,,-99.99,89.599998,,2013-03-03 16:52:00,
2013-03-03 10:00:00,42.0,29.0,29.98,East,93,1.0,5.0,59,-99.99,,,-99.99,191.000000,,2013-03-03 17:00:00,
2013-03-03 10:52:00,42.0,29.0,29.98,East,93,1.0,5.0,59,-99.99,,,-99.99,191.000000,,2013-03-03 17:52:00,
2013-03-03 11:00:00,41.0,31.0,29.97,NNE,30,2.0,4.0,65,-99.99,,,-99.99,405.100006,,2013-03-03 18:00:00,
2013-03-03 11:52:00,41.0,31.0,29.97,NNE,30,2.0,4.0,65,-99.99,,,-99.99,405.100006,,2013-03-03 18:52:00,
2013-03-03 12:00:00,39.0,30.0,29.96,NNE,25,1.0,4.0,70,-99.99,,,-99.99,431.299988,,2013-03-03 19:00:00,
2013-03-03 12:52:00,39.0,30.0,29.96,NNE,25,1.0,4.0,70,-99.99,,,-99.99,431.299988,,2013-03-03 19:52:00,
2013-03-03 13:00:00,42.0,32.0,29.94,North,351,3.0,5.0,66,-99.99,,,-99.99,432.899994,,2013-03-03 20:00:00,
2013-03-03 13:53:00,42.0,32.0,29.94,North,351,3.0,5.0,66,-99.99,,,-99.99,432.899994,,2013-03-03 20:53:00,
2013-03-03 14:00:00,40.0,31.0,29.93,NNE,19,2.0,6.0,71,-99.99,,,-99.99,391.200012,,2013-03-03 21:00:00,
2013-03-03 14:52:00,40.0,31.0,29.93,NNE,19,2.0,6.0,71,-99.99,,,-99.99,391.200012,,2013-03-03 21:52:00,
2013-03-03 15:00:00,41.0,32.0,29.94,North,3,3.0,5.0,72,-99.99,,,-99.99,291.500000,,2013-03-03 22:00:00,
2013-03-03 15:52:00,41.0,32.0,29.94,North,3,3.0,5.0,72,-99.99,,,-99.99,291.500000,,2013-03-03 22:52:00,
2013-03-03 16:00:00,40.0,33.0,29.93,North,9,3.0,5.0,75,-99.99,,,-99.99,257.600006,,2013-03-03 23:00:00,
2013-03-03 16:52:00,40.0,33.0,29.93,North,9,3.0,5.0,75,-99.99,,,-99.99,257.600006,,2013-03-03 23:52:00,
2013-03-03 17:00:00,40.0,34.0,29.93,NNW,345,2.0,5.0,80,-99.99,,,-99.99,202.300003,,2013-03-04 00:00:00,
2013-03-03 17:52:00,40.0,34.0,29.93,NNW,345,2.0,5.0,80,-99.99,,,-99.99,202.300003,,2013-03-04 00:52:00,
2013-03-03 18:00:00,38.0,32.0,29.92,North,4,0.0,3.0,80,-99.99,,,-99.99,58.709999,,2013-03-04 01:00:00,
2013-03-03 18:52:00,38.0,32.0,29.92,North,4,0.0,3.0,80,-99.99,,,-99.99,58.709999,,2013-03-04 01:52:00,
2013-03-03 19:00:00,39.0,33.0,29.91,North,0,0.0,1.0,79,-99.99,,,-99.99,2.670000,,2013-03-04 02:00:00,
2013-03-03 19:52:00,39.0,33.0,29.91,North,0,0.0,1.0,79,-99.99,,,-99.99,2.670000,,2013-03-04 02:52:00,
2013-03-03 20:00:00,41.0,34.0,29.91,East,79,1.0,0.0,74,-99.99,,,-99.99,0.000000,,2013-03-04 03:00:00,
2013-03-03 20:52:00,41.0,34.0,29.91,East,79,1.0,0.0,74,-99.99,,,-99.99,0.000000,,2013-03-04 03:52:00,
2013-03-03 21:00:00,37.0,33.0,29.92,East,79,1.0,4.0,87,-99.99,,,-99.99,0.010000,,2013-03-04 04:00:00,
2013-03-03 21:52:00,37.0,33.0,29.92,East,79,1.0,4.0,87,-99.99,,,-99.99,0.010000,,2013-03-04 04:52:00,
2013-03-03 22:00:00,37.0,33.0,29.93,ENE,66,0.0,3.0,85,-99.99,,,-99.99,0.660000,,2013-03-04 05:00:00,
2013-03-03 22:52:00,37.0,33.0,29.93,ENE,66,0.0,3.0,85,-99.99,,,-99.99,0.660000,,2013-03-04 05:52:00,
2013-03-03 23:00:00,36.0,34.0,29.93,NNE,19,3.0,-999.0,93,-99.99,,,-99.99,3.580000,,2013-03-04 06:00:00,
2013-03-03 23:52:00,36.0,34.0,29.93,NNE,19,3.0,-999.0,93,-99.99,,,-99.99,3.580000,,2013-03-04 06:52:00,